This is the latest recevied weather packets stored in our database for station/object KO4APQ. If no packets are shown the sender has not sent any weather packets the latest 10 day(s).
| Time | Temp. | Humidity | Pressure | Rain* | Wind** | Luminosity | Snow |
|---|---|---|---|---|---|---|---|
| 1777751380 | 18.89° C | 53% | 1012.1 hPa | 0 mm | - | 493 W/m² | - |
| 1777750470 | 18.89° C | 52% | 1012.2 hPa | 0 mm | - | 307 W/m² | - |
| 1777750165 | 18.89° C | 50% | 1012.1 hPa | 0 mm | - | 299 W/m² | - |
| 1777749862 | 18.89° C | 51% | 1012.3 hPa | 0 mm | - | 287 W/m² | - |
| 1777749559 | 18.33° C | 51% | 1012.4 hPa | 0 mm | - | 344 W/m² | - |
| 1777749257 | 18.89° C | 51% | 1012.1 hPa | 0 mm | - | 363 W/m² | - |
| 1777748955 | 18.89° C | 53% | 1012.1 hPa | 0 mm | - | 437 W/m² | - |
| 1777748652 | 18.33° C | 54% | 1012.4 hPa | 0 mm | - | 312 W/m² | - |
| 1777748348 | 18.33° C | 54% | 1012.3 hPa | 0 mm | - | 331 W/m² | - |
| 1777747436 | 19.44° C | 50% | 1012.6 hPa | 0 mm | - | 1123 W/m² | - |
| 1777747133 | 18.89° C | 51% | 1012.3 hPa | 0 mm | - | 1088 W/m² | - |
| 1777744706 | 17.78° C | 53% | 1012.9 hPa | 0 mm | - | 1026 W/m² | - |
| 1777741673 | 16.67° C | 57% | 1013.8 hPa | 0 mm | - | 349 W/m² | - |
| 1777739852 | 16.11° C | 60% | 1013.9 hPa | 0 mm | - | 295 W/m² | - |
| 1777739246 | 16.11° C | 62% | 1014 hPa | 0 mm | - | 319 W/m² | - |
| 1777738640 | 16.11° C | 61% | 1013.8 hPa | 0 mm | - | 382 W/m² | - |
| 1777738034 | 16.67° C | 59% | 1014 hPa | 0 mm | - | 340 W/m² | - |
| 1777737431 | 16.67° C | 61% | 1014 hPa | 0 mm | - | 561 W/m² | - |
| 1777736200 | 15.56° C | 66% | 1014 hPa | 0 mm | - | 281 W/m² | - |
| 1777735897 | 15.56° C | 70% | 1014 hPa | 0 mm | - | 237 W/m² | - |
| 1777735595 | 16.11° C | 70% | 1014.3 hPa | 0 mm | - | 214 W/m² | - |
| 1777735292 | 16.11° C | 70% | 1014 hPa | 0 mm | - | 203 W/m² | - |
| 1777734989 | 16.11° C | 70% | 1014.1 hPa | 0 mm | - | 267 W/m² | - |
| 1777734687 | 16.67° C | 68% | 1014.1 hPa | 0 mm | - | 310 W/m² | - |
| 1777734384 | 16.67° C | 70% | 1014 hPa | 0 mm | - | 302 W/m² | - |
* Rain latest hour (hover to see other rain measurements)
** Current wind speed in m/s (hover to see current wind gust speed)